Time;durP1;ratioP1;P1;durP2;ratioP2;P2;SDS_P1;SDS_P2;PMS_P1;PMS_P2;Temp;Humidity;BMP_temperature;BMP_pressure;BME280_temperature;BME280_humidity;BME280_pressure;Samples;Min_cycle;Max_cycle;Signal;HPM_P1;HPM_P2
2022/04/29 00:00:54;;;;;;;;;;;6.50;99.90;;;;;;5055518;28;20053;-62
2022/04/29 00:03:22;;;;;;;6.20;4.60;;;6.50;99.90;;;;;;5053535;28;20322;-63
2022/04/29 00:05:49;;;;;;;8.57;4.95;;;6.50;99.90;;;;;;5054113;28;20059;-62
2022/04/29 00:08:16;;;;;;;;;;;6.50;99.90;;;;;;5054416;28;20033;-62
2022/04/29 00:10:44;;;;;;;7.00;5.45;;;6.50;99.90;;;;;;5054967;28;19924;-62
2022/04/29 00:13:13;;;;;;;6.00;4.38;;;6.40;99.90;;;;;;5053866;28;20056;-62
2022/04/29 00:15:40;;;;;;;5.97;4.80;;;6.30;99.90;;;;;;5054489;28;20044;-62
2022/04/29 00:18:07;;;;;;;7.43;5.13;;;6.30;99.90;;;;;;5052470;28;20055;-62
2022/04/29 00:20:34;;;;;;;9.05;5.20;;;6.30;99.90;;;;;;5068903;28;20442;-62
2022/04/29 00:23:02;;;;;;;8.63;5.47;;;6.20;99.90;;;;;;5053042;28;20744;-62
2022/04/29 00:25:29;;;;;;;;;;;6.20;99.90;;;;;;5055228;28;20044;-62
2022/04/29 00:27:57;;;;;;;13.95;5.20;;;6.10;99.90;;;;;;5050472;28;19931;-62
2022/04/29 00:30:24;;;;;;;8.48;5.72;;;6.10;99.90;;;;;;5036266;28;20595;-62
2022/04/29 00:32:50;;;;;;;6.05;4.78;;;6.00;99.90;;;;;;5032889;28;20868;-62
2022/04/29 00:35:17;;;;;;;;;;;6.00;99.90;;;;;;5032353;28;20777;-61
2022/04/29 00:37:46;;;;;;;13.68;6.30;;;5.90;99.90;;;;;;5032405;28;19978;-62
2022/04/29 00:40:15;;;;;;;6.40;4.85;;;5.80;99.90;;;;;;5039534;28;20059;-62
2022/04/29 00:42:43;;;;;;;6.30;5.07;;;5.80;99.90;;;;;;5053444;28;20989;-62
2022/04/29 00:45:12;;;;;;;6.65;4.95;;;5.80;99.90;;;;;;5052632;28;20048;-62
2022/04/29 00:47:38;;;;;;;7.25;5.60;;;5.80;99.90;;;;;;5052748;28;20044;-62
2022/04/29 00:50:05;;;;;;;;;;;5.80;99.90;;;;;;5052782;28;20036;-62
2022/04/29 00:52:36;;;;;;;11.93;5.53;;;5.80;99.90;;;;;;5053658;28;19930;-62
2022/04/29 00:55:08;;;;;;;6.25;5.28;;;5.70;99.90;;;;;;5052544;28;20037;-62
2022/04/29 00:57:51;;;;;;;7.45;5.07;;;5.70;99.90;;;;;;5068819;28;20056;-62
2022/04/29 01:00:19;;;;;;;8.32;5.03;;;5.70;99.90;;;;;;5073883;28;20139;-62
2022/04/29 01:02:50;;;;;;;12.48;4.72;;;5.70;99.90;;;;;;5054143;28;20105;-62
2022/04/29 01:05:23;;;;;;;5.88;4.78;;;5.70;99.90;;;;;;5053348;28;20040;-61
2022/04/29 01:07:51;;;;;;;6.70;4.68;;;5.60;99.90;;;;;;5052996;28;20136;-62
2022/04/29 01:10:20;;;;;;;6.85;5.25;;;5.60;99.90;;;;;;5068424;28;20131;-62
2022/04/29 01:12:53;;;;;;;7.38;4.20;;;5.60;99.90;;;;;;5067837;28;20117;-62
2022/04/29 01:15:20;;;;;;;5.45;4.32;;;5.50;99.90;;;;;;5052384;28;20067;-62
2022/04/29 01:17:49;;;;;;;7.95;5.75;;;5.50;99.90;;;;;;5052160;28;20052;-62
2022/04/29 01:20:19;;;;;;;8.10;5.07;;;5.50;99.90;;;;;;5051809;28;20040;-61
2022/04/29 01:22:46;;;;;;;6.05;4.80;;;5.50;99.90;;;;;;5051107;28;20047;-62
2022/04/29 01:25:14;;;;;;;9.65;6.38;;;5.40;99.90;;;;;;5052618;28;20289;-62
2022/04/29 01:27:48;;;;;;;6.20;5.00;;;5.40;99.90;;;;;;5049989;28;20066;-62
2022/04/29 01:30:16;;;;;;;7.25;5.80;;;5.30;99.90;;;;;;5052574;28;20063;-61
2022/04/29 01:32:44;;;;;;;7.72;5.90;;;5.30;99.90;;;;;;5051785;28;20064;-62
2022/04/29 01:35:13;;;;;;;8.52;6.25;;;5.30;99.90;;;;;;5050959;28;20048;-62
2022/04/29 01:37:42;;;;;;;8.75;6.05;;;5.20;99.90;;;;;;5050886;28;20049;-62
2022/04/29 01:40:09;;;;;;;15.75;6.45;;;5.20;99.90;;;;;;5051077;28;20448;-62
2022/04/29 01:42:37;;;;;;;9.48;6.28;;;5.20;99.90;;;;;;5067932;28;20045;-62
2022/04/29 01:45:05;;;;;;;7.13;5.72;;;5.20;99.90;;;;;;5067736;28;20052;-62
2022/04/29 01:47:45;;;;;;;7.28;5.93;;;5.20;99.90;;;;;;5067568;28;20045;-62
2022/04/29 01:50:28;;;;;;;9.30;5.68;;;5.20;99.90;;;;;;5068370;28;20048;-62
2022/04/29 01:52:55;;;;;;;7.80;5.75;;;5.20;99.90;;;;;;5051504;28;21072;-62
2022/04/29 01:55:22;;;;;;;;;;;5.20;99.90;;;;;;5052539;28;20041;-62
2022/04/29 01:57:50;;;;;;;6.63;5.40;;;5.10;99.90;;;;;;5051679;28;19931;-62
2022/04/29 02:00:18;;;;;;;8.00;5.57;;;5.10;99.90;;;;;;5051758;28;20048;-62
2022/04/29 02:02:47;;;;;;;13.52;6.13;;;5.00;99.90;;;;;;5067439;28;20047;-61
2022/04/29 02:05:15;;;;;;;12.13;6.93;;;5.00;99.90;;;;;;5046189;28;20163;-62
2022/04/29 02:07:44;;;;;;;9.88;6.47;;;4.90;99.90;;;;;;5057986;28;20055;-61
2022/04/29 02:10:13;;;;;;;14.80;6.15;;;4.90;99.90;;;;;;5066384;28;20044;-62
2022/04/29 02:12:41;;;;;;;8.60;5.75;;;4.90;99.90;;;;;;5070394;28;20052;-62
2022/04/29 02:15:26;;;;;;;8.65;6.43;;;4.90;99.90;;;;;;5052267;28;20183;-62
2022/04/29 02:17:56;;;;;;;8.15;5.95;;;4.90;99.90;;;;;;5050498;28;20890;-61
2022/04/29 02:20:25;;;;;;;10.68;5.53;;;4.90;99.90;;;;;;5050691;28;20056;-62
2022/04/29 02:22:55;;;;;;;6.80;5.53;;;4.90;99.90;;;;;;5053331;28;20123;-62
2022/04/29 02:25:23;;;;;;;9.50;6.25;;;4.90;99.90;;;;;;5051948;28;20040;-62
2022/04/29 02:27:50;;;;;;;8.18;6.15;;;4.90;99.90;;;;;;5051495;28;20647;-62
2022/04/29 02:30:17;;;;;;;8.63;5.15;;;4.90;99.90;;;;;;5044040;28;20040;-62
2022/04/29 02:32:44;;;;;;;;;;;4.90;99.90;;;;;;5032571;28;20077;-62
2022/04/29 02:35:11;;;;;;;6.15;4.95;;;4.80;99.90;;;;;;5030624;28;19936;-62
2022/04/29 02:37:38;;;;;;;6.95;5.55;;;4.80;99.90;;;;;;5030080;28;20045;-62
2022/04/29 02:40:06;;;;;;;7.28;5.32;;;4.80;99.90;;;;;;5036963;28;20102;-62
2022/04/29 02:42:33;;;;;;;9.25;5.32;;;4.80;99.90;;;;;;5051901;28;20090;-62
2022/04/29 02:44:59;;;;;;;;;;;4.80;99.90;;;;;;5056821;28;20518;-62
2022/04/29 02:47:39;;;;;;;10.13;5.28;;;4.80;99.90;;;;;;5070094;28;20341;-62
2022/04/29 02:50:07;;;;;;;7.68;4.65;;;4.80;99.90;;;;;;5053012;28;20063;-61
2022/04/29 02:52:35;;;;;;;9.05;5.50;;;4.80;99.90;;;;;;5071564;28;20047;-62
2022/04/29 02:55:02;;;;;;;9.73;5.25;;;4.80;99.90;;;;;;5071000;28;20044;-61
2022/04/29 02:57:47;;;;;;;7.63;5.22;;;4.80;99.90;;;;;;5054936;28;20507;-62
2022/04/29 03:00:15;;;;;;;7.43;5.03;;;4.80;99.90;;;;;;5071229;28;20052;-62
2022/04/29 03:02:42;;;;;;;8.45;5.35;;;4.70;99.90;;;;;;5051580;28;20811;-62
2022/04/29 03:05:10;;;;;;;7.35;4.53;;;4.70;99.90;;;;;;5053501;28;20098;-61
2022/04/29 03:07:37;;;;;;;6.65;4.93;;;4.70;99.90;;;;;;5069770;28;20033;-62
2022/04/29 03:10:08;;;;;;;7.53;4.97;;;4.70;99.90;;;;;;5055858;28;20033;-61
2022/04/29 03:12:37;;;;;;;9.00;4.95;;;4.70;99.90;;;;;;5052675;28;20036;-62
2022/04/29 03:15:16;;;;;;;9.13;5.10;;;4.70;99.90;;;;;;5071257;28;20619;-62
2022/04/29 03:20:41;;;;;;;15.65;10.10;;;4.60;99.90;;;;;;5053935;28;20048;-60
2022/04/29 03:23:09;;;;;;;10.20;4.85;;;4.50;99.90;;;;;;5054301;28;20066;-62
2022/04/29 03:25:41;;;;;;;9.77;4.95;;;4.50;99.90;;;;;;5053779;28;20040;-62
2022/04/29 03:28:09;;;;;;;13.60;5.25;;;4.50;99.90;;;;;;5052923;28;20044;-61
2022/04/29 03:30:37;;;;;;;9.23;4.35;;;4.50;99.90;;;;;;5048840;28;20659;-61
2022/04/29 03:33:06;;;;;;;8.90;4.57;;;4.50;99.90;;;;;;5048358;28;20048;-61
2022/04/29 03:35:45;;;;;;;8.02;4.70;;;4.40;99.90;;;;;;5053431;28;20048;-61
2022/04/29 03:38:26;;;;;;;9.32;5.40;;;4.50;99.90;;;;;;5053367;28;20056;-61
2022/04/29 03:40:53;;;;;;;6.90;4.85;;;4.40;99.90;;;;;;5052942;28;20048;-61
2022/04/29 03:43:23;;;;;;;8.40;4.53;;;4.40;99.90;;;;;;5054747;28;20055;-62
2022/04/29 03:45:51;;;;;;;5.43;4.13;;;4.40;99.90;;;;;;5071295;28;20585;-62
2022/04/29 03:51:37;;;;;;;5.45;4.32;;;4.40;99.90;;;;;;5069226;28;20650;-62
2022/04/29 03:54:04;;;;;;;6.63;3.97;;;4.40;99.90;;;;;;5053109;28;20512;-61
2022/04/29 03:56:32;;;;;;;6.90;3.95;;;4.40;99.90;;;;;;5069978;28;20033;-62
2022/04/29 03:58:59;;;;;;;8.88;4.45;;;4.30;99.90;;;;;;5068705;28;20135;-61
2022/04/29 04:01:28;;;;;;;;;;;4.40;99.90;;;;;;5055839;28;20119;-62
2022/04/29 04:04:04;;;;;;;10.90;5.60;;;4.30;99.90;;;;;;5053858;28;19931;-61
2022/04/29 04:06:49;;;;;;;9.60;5.13;;;4.30;99.90;;;;;;5054224;28;20694;-62
2022/04/29 04:09:34;;;;;;;8.82;4.55;;;4.30;99.90;;;;;;5052821;28;20487;-62
2022/04/29 04:12:05;;;;;;;8.70;5.45;;;4.30;99.90;;;;;;5052717;28;20072;-62
2022/04/29 04:15:00;;;;;;;11.85;4.78;;;4.20;99.90;;;;;;5043764;28;20053;-62
2022/04/29 04:17:28;;;;;;;6.93;4.97;;;4.20;99.90;;;;;;5045521;28;20102;-62
2022/04/29 04:19:56;;;;;;;7.82;5.13;;;4.20;99.90;;;;;;5054883;28;20090;-62
2022/04/29 04:22:23;;;;;;;8.32;5.03;;;4.20;99.90;;;;;;5052685;28;20438;-61
2022/04/29 04:24:50;;;;;;;;;;;4.10;99.90;;;;;;5053164;28;20052;-61
2022/04/29 04:27:17;;;;;;;6.78;4.43;;;4.10;99.90;;;;;;5068332;28;19977;-62
2022/04/29 04:29:44;;;;;;;5.32;4.22;;;4.10;99.90;;;;;;5052080;28;20062;-62
2022/04/29 04:32:10;;;;;;;;;;;4.20;99.90;;;;;;5051229;28;20132;-62
2022/04/29 04:34:49;;;;;;;9.18;4.45;;;4.20;99.90;;;;;;5053356;28;20436;-62
2022/04/29 04:37:24;;;;;;;7.03;5.57;;;4.20;99.90;;;;;;5053360;28;20040;-62
2022/04/29 04:39:58;;;;;;;7.82;5.57;;;4.30;99.90;;;;;;5036415;28;20032;-62
2022/04/29 04:42:44;;;;;;;9.40;5.63;;;4.30;99.90;;;;;;5052468;28;20131;-63
2022/04/29 04:45:18;;;;;;;8.02;5.53;;;4.30;99.90;;;;;;5052169;28;20048;-62
2022/04/29 04:48:05;;;;;;;11.32;5.70;;;4.40;99.90;;;;;;5053095;28;20048;-63
2022/04/29 04:50:55;;;;;;;6.63;4.70;;;4.50;99.90;;;;;;5052715;28;20127;-62
2022/04/29 04:53:22;;;;;;;;;;;4.50;99.90;;;;;;5069698;28;20125;-63
2022/04/29 04:55:48;;;;;;;8.93;5.15;;;4.60;99.90;;;;;;5069049;28;19928;-63
2022/04/29 04:58:16;;;;;;;7.68;5.20;;;4.60;99.90;;;;;;5067783;28;20094;-56
2022/04/29 05:00:43;;;;;;;8.48;5.13;;;4.70;99.90;;;;;;5051896;28;20051;-57
2022/04/29 05:03:29;;;;;;;7.25;5.03;;;4.70;99.90;;;;;;5041773;28;20083;-57
2022/04/29 05:06:26;;;;;;;7.85;5.68;;;4.80;99.90;;;;;;5035366;28;20221;-58
2022/04/29 05:08:53;;;;;;;9.18;5.32;;;4.90;99.90;;;;;;5067564;28;20041;-56
2022/04/29 05:11:20;;;;;;;9.40;5.05;;;4.90;99.90;;;;;;5048309;28;20053;-57
2022/04/29 05:14:12;;;;;;;6.53;5.28;;;5.00;99.90;;;;;;5048569;28;20037;-56
2022/04/29 05:16:39;;;;;;;6.22;4.85;;;5.10;99.90;;;;;;5050423;28;20372;-58
2022/04/29 05:19:29;;;;;;;8.20;6.38;;;5.20;99.90;;;;;;5020422;28;20083;-56
2022/04/29 05:21:56;;;;;;;5.88;4.93;;;5.30;99.90;;;;;;5050088;28;20045;-56
2022/04/29 05:24:24;;;;;;;10.32;5.95;;;5.40;99.90;;;;;;5035784;28;20072;-56
2022/04/29 05:27:16;;;;;;;7.10;4.78;;;5.50;99.90;;;;;;5051161;28;20055;-57
2022/04/29 05:30:04;;;;;;;11.60;6.18;;;5.60;99.90;;;;;;5052319;28;20146;-57
2022/04/29 05:32:53;;;;;;;6.75;4.88;;;5.70;99.90;;;;;;5050888;28;20054;-56
2022/04/29 05:35:39;;;;;;;10.13;5.07;;;5.90;99.90;;;;;;5049837;28;20109;-55
2022/04/29 05:42:14;;;;;;;10.57;4.80;;;6.00;99.90;;;;;;5051529;28;20051;-56
2022/04/29 05:43:58;;;;;;;6.28;4.30;;;6.20;99.90;;;;;;5034989;28;20049;-56
2022/04/29 05:46:25;;;;;;;;;;;6.30;99.90;;;;;;5047428;28;20099;-56
2022/04/29 05:48:51;;;;;;;8.75;5.10;;;6.30;99.90;;;;;;5045697;28;19932;-57
2022/04/29 05:51:19;;;;;;;7.63;5.05;;;6.40;99.90;;;;;;5048963;28;20526;-56
2022/04/29 05:53:46;;;;;;;;;;;6.50;99.90;;;;;;5051259;28;20052;-57
2022/04/29 05:56:13;;;;;;;8.77;4.65;;;6.60;99.90;;;;;;5052267;28;19924;-57
2022/04/29 05:58:39;;;;;;;8.70;5.10;;;6.60;99.90;;;;;;5050443;28;20094;-58
2022/04/29 06:01:41;;;;;;;6.57;4.22;;;6.80;99.90;;;;;;5051487;28;20506;-55
2022/04/29 06:04:09;;;;;;;6.45;4.70;;;6.80;99.90;;;;;;5050355;28;20056;-58
2022/04/29 06:06:38;;;;;;;9.52;4.30;;;7.00;99.90;;;;;;5066634;28;20087;-58
2022/04/29 06:09:05;;;;;;;7.95;5.03;;;7.10;99.90;;;;;;5046038;28;20527;-57
2022/04/29 06:11:32;;;;;;;6.25;4.70;;;7.30;99.90;;;;;;5041298;28;20060;-57
2022/04/29 06:14:00;;;;;;;6.40;4.38;;;7.40;99.90;;;;;;5050176;28;20060;-57
2022/04/29 06:17:02;;;;;;;6.30;4.47;;;7.60;99.90;;;;;;5033955;28;20606;-57
2022/04/29 06:19:52;;;;;;;6.82;4.40;;;7.80;99.90;;;;;;5038459;28;20431;-57
2022/04/29 06:22:45;;;;;;;8.40;4.93;;;7.90;99.90;;;;;;5036213;28;20230;-56
2022/04/29 06:25:21;;;;;;;8.43;5.55;;;8.10;99.90;;;;;;5034615;28;20666;-50
2022/04/29 06:27:48;;;;;;;10.68;4.78;;;8.20;99.90;;;;;;5033681;28;20802;-49
2022/04/29 06:30:15;;;;;;;5.57;4.05;;;8.30;99.90;;;;;;5060964;28;20055;-56
2022/04/29 06:33:31;;;;;;;9.30;4.82;;;8.40;99.90;;;;;;5049084;28;20618;-58
2022/04/29 06:35:58;;;;;;;9.52;4.85;;;8.50;99.90;;;;;;5044696;28;20044;-58
2022/04/29 06:38:25;;;;;;;;;;;8.60;99.90;;;;;;5053567;28;20048;-57
2022/04/29 06:40:58;;;;;;;8.27;4.30;;;8.70;99.90;;;;;;5038101;28;19934;-56
2022/04/29 06:43:31;;;;;;;;;;;8.80;99.90;;;;;;5035872;28;20052;-56
2022/04/29 06:46:17;;;;;;;7.32;4.97;;;8.90;99.90;;;;;;5034918;28;20141;-56
2022/04/29 06:49:03;;;;;;;7.43;4.78;;;9.10;99.90;;;;;;5034372;28;20079;-57
2022/04/29 06:51:48;;;;;;;9.60;4.65;;;9.20;99.90;;;;;;5047167;28;20579;-58
2022/04/29 06:54:20;;;;;;;8.23;4.50;;;9.40;99.90;;;;;;5054812;28;20098;-57
2022/04/29 06:56:52;;;;;;;9.77;4.57;;;9.50;99.90;;;;;;5054403;28;20056;-58
2022/04/29 06:59:19;;;;;;;8.30;3.95;;;9.70;99.90;;;;;;5070751;28;20040;-57
2022/04/29 07:01:46;;;;;;;;;;;9.90;99.90;;;;;;5055181;28;20376;-57
2022/04/29 07:04:13;;;;;;;10.52;4.40;;;10.00;99.90;;;;;;5050884;28;19924;-57
2022/04/29 07:06:40;;;;;;;7.05;4.97;;;10.20;99.90;;;;;;5054324;28;20033;-49
2022/04/29 07:09:07;;;;;;;;;;;10.30;99.90;;;;;;5070845;28;20049;-51
2022/04/29 07:11:52;;;;;;;4.80;3.90;;;10.40;99.90;;;;;;5056367;28;19931;-49
2022/04/29 07:14:26;;;;;;;7.22;4.88;;;10.60;99.90;;;;;;5054628;28;20048;-52
2022/04/29 07:16:58;;;;;;;12.35;4.95;;;10.70;99.90;;;;;;5052883;28;20576;-58
2022/04/29 07:19:41;;;;;;;7.18;5.57;;;10.90;99.90;;;;;;5054636;28;20045;-58
2022/04/29 07:22:28;;;;;;;8.80;5.20;;;11.10;99.90;;;;;;5053763;28;20051;-62
2022/04/29 07:24:56;;;;;;;8.38;5.13;;;11.20;99.90;;;;;;5053626;28;20036;-55
2022/04/29 07:27:24;;;;;;;6.20;5.18;;;11.30;99.90;;;;;;5055279;28;20606;-58
2022/04/29 07:29:51;;;;;;;10.32;6.05;;;11.40;99.90;;;;;;5055413;28;20040;-55
2022/04/29 07:32:27;;;;;;;7.13;5.63;;;11.60;99.90;;;;;;5054296;28;20569;-58
2022/04/29 07:43:28;;;;;;;9.32;5.97;;;12.30;99.90;;;;;;5070438;28;20091;-58
2022/04/29 07:45:55;;;;;;;;;;;12.60;99.90;;;;;;5053947;28;20052;-59
2022/04/29 07:48:28;;;;;;;12.65;6.18;;;12.80;99.90;;;;;;5054066;28;19930;-59
2022/04/29 07:50:57;;;;;;;12.23;6.10;;;13.10;99.90;;;;;;5069267;28;20044;-59
2022/04/29 07:53:25;;;;;;;10.00;5.95;;;13.40;99.90;;;;;;5068930;28;20049;-59
2022/04/29 07:55:52;;;;;;;9.48;5.53;;;14.10;99.90;;;;;;5070374;28;20048;-59
2022/04/29 07:58:19;;;;;;;13.13;5.78;;;14.80;99.90;;;;;;5053000;28;20048;-59
2022/04/29 08:00:47;;;;;;;10.23;5.95;;;15.40;99.90;;;;;;5052855;28;20052;-59
2022/04/29 08:03:36;;;;;;;7.15;6.03;;;15.60;99.40;;;;;;5043855;28;20051;-59
2022/04/29 08:06:06;;;;;;;8.32;5.28;;;15.70;97.00;;;;;;5051244;28;20056;-60
2022/04/29 08:08:35;;;;;;;10.00;5.50;;;15.90;96.90;;;;;;5032149;28;20041;-60
2022/04/29 08:11:05;;;;;;;6.85;5.40;;;16.20;95.20;;;;;;5036399;28;20106;-59
2022/04/29 08:13:42;;;;;;;8.40;5.18;;;16.40;94.80;;;;;;5052957;28;20731;-59
2022/04/29 08:16:49;;;;;;;9.05;5.85;;;16.70;94.50;;;;;;5053266;28;20298;-59
2022/04/29 08:19:27;;;;;;;7.57;5.22;;;17.00;90.60;;;;;;5070482;28;20074;-59
2022/04/29 08:22:07;;;;;;;10.57;5.43;;;17.10;90.70;;;;;;5052853;28;20135;-59
2022/04/29 08:24:35;;;;;;;8.45;4.30;;;17.50;90.80;;;;;;5070495;28;20048;-59
2022/04/29 08:27:03;;;;;;;8.30;4.55;;;17.90;88.40;;;;;;5052139;28;20044;-59
2022/04/29 08:29:30;;;;;;;6.28;4.05;;;18.30;84.20;;;;;;5051857;28;20055;-59
2022/04/29 08:31:56;;;;;;;;;;;18.70;81.80;;;;;;5070376;28;20131;-59
2022/04/29 08:34:25;;;;;;;10.45;4.60;;;19.10;81.30;;;;;;5069539;28;20006;-59
2022/04/29 08:36:51;;;;;;;10.35;4.97;;;19.30;73.00;;;;;;5046989;28;20037;-59
2022/04/29 08:39:18;;;;;;;10.23;5.15;;;19.40;71.40;;;;;;5015598;28;20057;-59
2022/04/29 08:41:45;;;;;;;;;;;19.50;69.80;;;;;;5052223;28;20895;-60
2022/04/29 08:44:19;;;;;;;5.32;4.15;;;19.60;70.40;;;;;;5069209;28;19982;-59
2022/04/29 08:46:52;;;;;;;6.38;4.07;;;19.70;69.90;;;;;;5069004;28;20080;-58
2022/04/29 08:49:35;;;;;;;5.00;4.25;;;19.80;68.20;;;;;;5053770;28;20051;-59
2022/04/29 08:52:08;;;;;;;9.32;4.82;;;20.00;68.70;;;;;;5052730;28;20110;-60
2022/04/29 09:00:20;;;;;;;8.43;5.32;;;20.30;67.10;;;;;;5069207;28;20152;-59
2022/04/29 09:02:52;;;;;;;9.30;5.40;;;20.20;70.00;;;;;;5051752;28;20040;-59
2022/04/29 09:05:19;;;;;;;7.75;4.85;;;20.30;73.40;;;;;;5053999;28;20036;-60
2022/04/29 09:08:02;;;;;;;7.32;5.57;;;20.40;72.40;;;;;;5067663;28;20040;-59
2022/04/29 09:10:34;;;;;;;6.53;5.30;;;20.40;71.90;;;;;;5053420;28;20119;-60
2022/04/29 09:13:15;;;;;;;6.53;5.45;;;20.30;72.00;;;;;;5068435;28;20038;-60
2022/04/29 09:15:50;;;;;;;8.80;5.65;;;20.30;70.40;;;;;;5053934;28;20056;-59
2022/04/29 09:18:34;;;;;;;7.10;5.60;;;20.20;71.20;;;;;;5032292;28;20858;-49
2022/04/29 09:21:27;;;;;;;6.60;4.60;;;20.20;70.90;;;;;;5042071;28;20162;-50
2022/04/29 09:23:56;;;;;;;10.25;5.15;;;20.10;69.60;;;;;;5052505;28;20124;-49
2022/04/29 09:26:42;;;;;;;11.40;5.55;;;20.20;69.30;;;;;;5053606;28;20600;-51
2022/04/29 09:29:14;;;;;;;9.45;5.65;;;20.20;68.40;;;;;;5046212;28;20059;-50
2022/04/29 09:31:53;;;;;;;12.68;4.85;;;20.20;65.70;;;;;;5069608;28;20059;-49
2022/04/29 09:35:08;;;;;;;16.48;5.53;;;20.20;64.60;;;;;;5052729;28;20157;-51
2022/04/29 09:39:26;;;;;;;6.28;4.78;;;20.40;67.70;;;;;;5050797;28;20059;-52
2022/04/29 09:40:36;;;;;;;6.25;4.63;;;20.50;61.50;;;;;;5052973;28;20760;-50
2022/04/29 09:43:03;;;;;;;11.48;4.65;;;20.50;61.50;;;;;;5053141;28;20044;-50
2022/04/29 09:45:31;;;;;;;9.07;4.13;;;20.50;59.00;;;;;;5053623;28;20633;-50
2022/04/29 09:47:58;;;;;;;4.03;3.60;;;20.50;59.50;;;;;;5050840;28;20127;-48
2022/04/29 09:50:50;;;;;;;6.00;4.15;;;20.70;58.60;;;;;;5053190;28;20126;-49
2022/04/29 09:53:20;;;;;;;7.05;3.65;;;20.70;57.00;;;;;;5055858;28;20061;-50
2022/04/29 09:56:06;;;;;;;5.97;4.65;;;20.60;58.10;;;;;;5057434;28;20044;-49
2022/04/29 09:58:33;;;;;;;6.20;4.47;;;20.60;59.60;;;;;;5070945;28;20678;-49
2022/04/29 10:01:02;;;;;;;6.45;3.85;;;20.70;60.90;;;;;;5055792;28;20052;-49
2022/04/29 10:03:29;;;;;;;4.53;3.22;;;20.90;57.70;;;;;;5057122;28;20055;-48
2022/04/29 10:06:01;;;;;;;4.88;3.63;;;21.00;56.50;;;;;;5057223;28;20049;-49
2022/04/29 10:08:31;;;;;;;9.10;4.30;;;21.20;55.50;;;;;;5056197;28;20339;-52
2022/04/29 10:10:59;;;;;;;5.82;4.68;;;21.30;57.00;;;;;;5057078;28;20114;-51
2022/04/29 10:13:27;;;;;;;6.97;5.00;;;21.30;57.10;;;;;;5056529;28;20045;-50
2022/04/29 10:16:24;;;;;;;8.82;4.43;;;21.40;57.00;;;;;;5055293;28;20198;-48
2022/04/29 10:22:07;;;;;;;5.32;4.35;;;21.60;57.50;;;;;;5054825;28;20110;-57
2022/04/29 10:24:42;;;;;;;11.65;4.30;;;21.80;57.20;;;;;;5055347;28;20068;-56
2022/04/29 10:27:11;;;;;;;6.53;4.35;;;21.80;57.00;;;;;;5070161;28;20040;-58
2022/04/29 10:29:39;;;;;;;7.45;4.13;;;21.90;56.40;;;;;;5056161;28;20037;-57
2022/04/29 10:32:10;;;;;;;7.30;4.82;;;22.00;55.50;;;;;;5072340;28;20051;-58
2022/04/29 10:34:38;;;;;;;7.72;4.22;;;22.20;55.20;;;;;;5056473;28;20053;-57
2022/04/29 10:37:12;;;;;;;7.28;4.60;;;22.10;54.60;;;;;;5050122;28;20037;-57
2022/04/29 10:39:40;;;;;;;7.20;4.57;;;22.00;53.50;;;;;;5050331;28;20048;-58
2022/04/29 10:42:09;;;;;;;6.18;3.85;;;22.00;54.20;;;;;;5055993;28;20181;-58
2022/04/29 10:45:00;;;;;;;5.97;4.13;;;21.80;55.50;;;;;;5071717;28;20766;-56
2022/04/29 10:47:38;;;;;;;5.90;3.85;;;21.80;54.50;;;;;;5054022;28;20063;-57
2022/04/29 10:50:29;;;;;;;5.30;3.38;;;21.80;55.30;;;;;;5071559;28;20044;-57
2022/04/29 10:53:15;;;;;;;7.15;3.58;;;21.90;56.90;;;;;;5053785;28;20051;-57
2022/04/29 10:55:45;;;;;;;3.78;3.38;;;22.10;54.30;;;;;;5071501;28;20044;-57
2022/04/29 10:58:21;;;;;;;5.40;4.45;;;22.30;52.90;;;;;;5054923;28;20044;-57
2022/04/29 11:01:24;;;;;;;6.00;4.15;;;22.40;53.10;;;;;;5056230;28;20055;-58
2022/04/29 11:03:51;;;;;;;4.35;3.67;;;22.40;54.40;;;;;;5022874;28;20056;-58
2022/04/29 11:06:21;;;;;;;4.82;4.15;;;22.40;53.30;;;;;;5054229;28;20048;-57
2022/04/29 11:08:49;;;;;;;6.47;3.55;;;22.40;52.40;;;;;;5070159;28;20466;-57
2022/04/29 11:11:16;;;;;;;4.55;4.15;;;22.60;53.30;;;;;;5055474;28;20210;-58
2022/04/29 11:14:06;;;;;;;8.98;4.55;;;22.70;53.20;;;;;;5036113;28;20053;-57
2022/04/29 11:16:59;;;;;;;6.75;3.33;;;22.80;52.10;;;;;;5054342;28;20063;-57
2022/04/29 11:19:48;;;;;;;6.70;3.53;;;22.70;52.10;;;;;;5053881;28;20052;-57
2022/04/29 11:25:08;;;;;;;5.88;3.88;;;22.70;54.70;;;;;;5056016;28;20613;-57
2022/04/29 11:27:43;;;;;;;6.28;3.28;;;22.90;52.00;;;;;;5052740;28;20761;-57
2022/04/29 11:30:16;;;;;;;5.07;4.03;;;23.00;52.60;;;;;;5053613;28;20140;-57
2022/04/29 11:33:02;;;;;;;10.00;3.93;;;23.10;52.00;;;;;;5055361;28;20127;-59
2022/04/29 11:35:29;;;;;;;4.47;3.38;;;22.90;51.90;;;;;;5055317;28;20835;-58
2022/04/29 11:37:58;;;;;;;4.88;3.72;;;22.70;50.90;;;;;;5053422;28;20070;-56
2022/04/29 11:40:26;;;;;;;3.00;2.70;;;22.40;50.50;;;;;;5022632;28;20049;-58
2022/04/29 11:42:53;;;;;;;4.63;3.20;;;22.00;51.70;;;;;;5035644;28;20048;-57
2022/04/29 11:45:23;;;;;;;3.80;3.28;;;21.80;52.60;;;;;;5034738;28;20037;-57
2022/04/29 11:48:03;;;;;;;4.88;3.25;;;21.60;50.80;;;;;;5033487;28;20048;-58
2022/04/29 11:50:36;;;;;;;4.75;3.53;;;21.40;51.00;;;;;;5034571;28;20264;-57
2022/04/29 11:53:04;;;;;;;6.32;3.15;;;21.20;51.00;;;;;;5034001;28;20143;-57
2022/04/29 11:55:31;;;;;;;5.22;2.67;;;21.10;51.90;;;;;;5069914;28;20511;-57
2022/04/29 11:57:59;;;;;;;5.57;3.13;;;20.80;51.70;;;;;;5069572;28;20043;-58
2022/04/29 12:00:28;;;;;;;3.28;2.72;;;20.60;50.90;;;;;;5053467;28;20626;-58
2022/04/29 12:02:58;;;;;;;4.50;2.55;;;20.40;52.60;;;;;;5070478;28;20094;-58
2022/04/29 12:05:27;;;;;;;3.17;2.70;;;20.20;52.80;;;;;;5054324;28;20045;-57
2022/04/29 12:07:59;;;;;;;2.00;1.80;;;20.10;54.30;;;;;;5053703;28;20051;-58
2022/04/29 12:10:47;;;;;;;3.30;1.80;;;20.10;54.20;;;;;;5054315;28;20587;-58
2022/04/29 12:13:14;;;;;;;3.33;2.35;;;20.20;53.40;;;;;;5055195;28;20044;-58
2022/04/29 12:15:44;;;;;;;4.40;2.45;;;20.20;53.20;;;;;;5052950;28;21001;-59
2022/04/29 12:18:14;;;;;;;9.40;2.40;;;20.30;52.50;;;;;;5053423;28;20037;-57
2022/04/29 12:21:00;;;;;;;4.00;2.38;;;20.40;53.40;;;;;;5053291;28;20053;-57
2022/04/29 12:23:32;;;;;;;3.33;2.40;;;20.40;53.10;;;;;;5069621;28;20110;-58
2022/04/29 12:26:01;;;;;;;3.17;2.13;;;20.60;54.50;;;;;;5054761;28;20064;-58
2022/04/29 12:28:30;;;;;;;2.85;2.22;;;20.50;52.20;;;;;;5052492;28;20136;-57
2022/04/29 12:36:53;;;;;;;2.42;1.95;;;20.90;53.80;;;;;;5069121;28;20163;-58
2022/04/29 12:39:25;;;;;;;1.85;1.63;;;21.00;53.30;;;;;;5047649;28;20052;-58
2022/04/29 12:42:13;;;;;;;4.57;2.05;;;21.10;52.20;;;;;;5049689;28;20067;-58
2022/04/29 12:47:53;;;;;;;3.90;2.85;;;21.40;51.60;;;;;;5050894;28;20137;-57
2022/04/29 12:50:38;;;;;;;3.90;2.10;;;21.50;50.20;;;;;;5054059;28;20059;-58
2022/04/29 12:53:14;;;;;;;3.03;2.50;;;21.70;50.50;;;;;;5052660;28;20049;-57
2022/04/29 12:55:44;;;;;;;2.20;2.05;;;21.80;49.80;;;;;;5052741;28;20036;-57
2022/04/29 12:58:19;;;;;;;3.45;2.30;;;22.00;48.60;;;;;;5051921;28;20041;-57
2022/04/29 13:00:55;;;;;;;5.45;2.13;;;22.20;48.50;;;;;;5052532;28;20059;-59
2022/04/29 13:03:30;;;;;;;2.40;2.20;;;22.50;49.80;;;;;;5068769;28;20135;-57
2022/04/29 13:06:03;;;;;;;4.97;2.20;;;22.70;48.20;;;;;;5052272;28;20607;-57
2022/04/29 13:08:31;;;;;;;2.67;2.22;;;22.90;49.00;;;;;;5067587;28;20774;-58
2022/04/29 13:11:00;;;;;;;2.50;2.30;;;23.10;49.10;;;;;;5053219;28;20075;-57
2022/04/29 13:13:30;;;;;;;2.60;1.80;;;23.20;46.80;;;;;;5053701;28;20960;-58
2022/04/29 13:15:58;;;;;;;6.93;2.55;;;23.40;46.40;;;;;;5051830;28;20174;-58
2022/04/29 13:18:29;;;;;;;11.02;3.03;;;23.60;45.90;;;;;;5050743;28;20048;-58
2022/04/29 13:20:56;;;;;;;5.30;2.60;;;23.70;48.10;;;;;;5068854;28;20047;-58
2022/04/29 13:23:25;;;;;;;7.85;2.47;;;23.80;45.90;;;;;;5068784;28;20045;-58
2022/04/29 13:25:56;;;;;;;3.75;2.15;;;24.00;46.00;;;;;;5051355;28;20048;-58
2022/04/29 13:28:24;;;;;;;5.63;2.45;;;24.10;45.00;;;;;;5052986;28;20048;-58
2022/04/29 13:30:51;;;;;;;4.18;2.60;;;24.10;44.80;;;;;;5053727;28;20067;-58
2022/04/29 13:33:18;;;;;;;4.00;2.78;;;24.10;44.30;;;;;;5068300;28;20986;-59
2022/04/29 13:35:45;;;;;;;4.45;3.08;;;24.10;44.00;;;;;;5051901;28;20834;-57
2022/04/29 13:38:12;;;;;;;3.63;2.67;;;24.20;45.10;;;;;;5067949;28;20052;-58
2022/04/29 13:40:39;;;;;;;7.13;2.67;;;24.20;44.30;;;;;;5052073;28;20040;-58
2022/04/29 13:43:06;;;;;;;6.25;3.17;;;24.10;44.10;;;;;;5018254;28;20044;-58
2022/04/29 13:45:37;;;;;;;4.78;3.03;;;24.00;46.30;;;;;;5033238;28;20049;-61
2022/04/29 13:48:05;;;;;;;4.50;3.15;;;23.80;45.60;;;;;;5032010;28;20045;-58
2022/04/29 13:50:32;;;;;;;5.63;3.40;;;23.80;46.20;;;;;;5033461;28;20102;-58
2022/04/29 13:53:08;;;;;;;4.38;3.83;;;23.70;46.30;;;;;;5033670;28;20053;-58
2022/04/29 13:55:37;;;;;;;4.73;3.00;;;23.90;46.50;;;;;;5047272;28;20044;-58
2022/04/29 13:58:04;;;;;;;4.13;2.63;;;23.90;45.00;;;;;;5067419;28;20442;-58
2022/04/29 14:00:31;;;;;;;5.03;3.50;;;23.80;45.00;;;;;;5053211;28;20052;-58
2022/04/29 14:02:58;;;;;;;3.33;2.70;;;23.80;46.30;;;;;;5053465;28;20462;-58